createdAt,value
2018-07-20T00:07:06.838Z,85.60
2018-07-20T00:17:09.857Z,86.00
2018-07-20T00:37:15.727Z,86.70
2018-07-20T00:47:18.742Z,87.30
2018-07-20T00:57:21.827Z,87.70
2018-07-20T01:17:27.678Z,87.90
2018-07-20T01:27:30.745Z,88.40
2018-07-20T01:37:33.750Z,88.80
2018-07-20T01:47:36.868Z,88.70
2018-07-20T01:57:39.886Z,89.00
2018-07-20T02:07:42.921Z,89.30
2018-07-20T02:17:45.943Z,89.60
2018-07-20T02:27:48.958Z,90.00
2018-07-20T02:37:51.979Z,90.00
2018-07-20T02:47:55.011Z,90.10
2018-07-20T02:57:58.056Z,90.30
2018-07-20T03:08:01.066Z,90.40
2018-07-20T03:18:04.107Z,90.50
2018-07-20T03:28:07.154Z,90.60
2018-07-20T03:38:10.178Z,90.70
2018-07-20T03:48:13.207Z,91.50
2018-07-20T03:58:16.279Z,94.10
2018-07-20T04:08:19.279Z,95.10
2018-07-20T04:18:22.298Z,95.80
2018-07-20T04:28:25.339Z,95.80
2018-07-20T04:38:28.354Z,95.60
2018-07-20T04:48:31.367Z,96.00
2018-07-20T04:58:34.379Z,96.50
2018-07-20T05:08:37.403Z,96.20
2018-07-20T05:18:40.467Z,96.80
2018-07-20T05:28:43.510Z,98.80
2018-07-20T05:48:49.375Z,99.90
2018-07-20T05:58:52.519Z,99.60
2018-07-20T06:08:55.910Z,98.70
2018-07-20T06:18:59.470Z,99.90
2018-07-20T06:29:05.158Z,99.90
2018-07-20T06:39:09.202Z,99.90
2018-07-20T06:49:19.402Z,99.90
2018-07-20T06:59:22.934Z,98.60
2018-07-20T07:09:26.022Z,96.50
2018-07-20T07:19:29.140Z,95.90
2018-07-20T07:29:32.137Z,95.10
2018-07-20T07:39:35.164Z,94.30
2018-07-20T07:49:38.167Z,97.20
2018-07-20T07:59:41.199Z,90.00
2018-07-20T08:09:44.290Z,98.70
2018-07-20T08:19:47.262Z,92.00
2018-07-20T08:29:50.352Z,90.70
2018-07-20T08:39:53.381Z,84.20
2018-07-20T08:49:56.410Z,91.60
2018-07-20T08:59:59.540Z,86.50
2018-07-20T09:10:02.636Z,79.50
2018-07-20T09:20:07.707Z,79.40
2018-07-20T09:30:11.790Z,95.70
2018-07-20T09:40:14.831Z,72.00
2018-07-20T09:50:26.026Z,75.50
2018-07-20T10:00:34.672Z,74.50
2018-07-20T10:10:37.719Z,69.00
2018-07-20T10:20:40.811Z,67.30
2018-07-20T10:30:43.897Z,66.40
2018-07-20T10:40:47.897Z,64.80
2018-07-20T10:50:52.686Z,65.80
2018-07-20T11:00:55.727Z,57.70
2018-07-20T11:10:58.794Z,54.70
2018-07-20T11:21:01.982Z,52.20
2018-07-20T11:31:05.347Z,54.20
2018-07-20T11:41:28.907Z,49.80
2018-07-20T11:51:31.940Z,53.30
2018-07-20T12:01:35.238Z,55.40
2018-07-20T12:11:38.287Z,55.90
2018-07-20T12:21:41.346Z,46.80
2018-07-20T12:31:44.381Z,50.00
2018-07-20T12:41:47.418Z,48.80
2018-07-20T12:51:50.426Z,53.20
2018-07-20T13:01:53.464Z,51.20
2018-07-20T13:11:56.591Z,53.30
2018-07-20T13:21:59.529Z,52.40
2018-07-20T13:32:02.557Z,53.90
2018-07-20T13:42:05.571Z,49.30
2018-07-20T13:52:11.759Z,52.30
2018-07-20T14:02:15.586Z,52.10
2018-07-20T14:12:24.430Z,48.10
2018-07-20T14:22:27.482Z,51.40
2018-07-20T14:32:30.602Z,50.70
2018-07-20T14:42:33.656Z,51.70
2018-07-20T14:52:36.691Z,52.90
2018-07-20T15:02:39.728Z,50.50
2018-07-20T15:12:42.739Z,51.70
2018-07-20T15:22:45.766Z,52.00
2018-07-20T15:32:48.882Z,51.80
2018-07-20T15:42:51.958Z,50.20
2018-07-20T15:53:36.250Z,50.60
2018-07-20T16:02:58.421Z,52.70
2018-07-20T16:13:01.476Z,52.70
2018-07-20T16:23:04.519Z,52.50
2018-07-20T16:33:07.548Z,54.40
2018-07-20T16:43:10.586Z,54.10
2018-07-20T16:53:13.660Z,52.90
2018-07-20T17:03:22.299Z,53.00
2018-07-20T17:13:25.338Z,53.00
2018-07-20T17:23:28.361Z,51.80
2018-07-20T17:33:31.465Z,53.10
2018-07-20T17:43:34.414Z,54.00
2018-07-20T17:53:37.687Z,54.60
2018-07-20T18:03:40.696Z,55.00
2018-07-20T18:13:43.762Z,55.40
2018-07-20T18:23:46.818Z,56.40
2018-07-20T18:33:49.938Z,58.40
2018-07-20T18:43:52.942Z,57.90
2018-07-20T18:53:55.959Z,58.20
2018-07-20T19:03:58.970Z,58.30
2018-07-20T19:14:02.202Z,58.60
2018-07-20T19:24:05.326Z,59.10
2018-07-20T19:34:08.385Z,59.50
2018-07-20T19:44:11.419Z,59.80
2018-07-20T19:54:14.471Z,60.40
2018-07-20T20:04:17.499Z,59.70
2018-07-20T20:14:20.709Z,60.20
2018-07-20T20:24:23.837Z,59.90
2018-07-20T20:34:27.106Z,60.70
2018-07-20T20:44:30.161Z,61.60
2018-07-20T21:04:36.127Z,62.30
2018-07-20T21:14:39.286Z,62.30
2018-07-20T21:24:42.318Z,63.50
2018-07-20T21:34:45.440Z,64.10
2018-07-20T21:44:48.455Z,64.80
2018-07-20T21:54:51.480Z,65.30
2018-07-20T22:04:54.594Z,65.00
2018-07-20T22:14:57.646Z,66.70
2018-07-20T22:25:00.753Z,67.80
2018-07-20T22:35:04.707Z,68.70
2018-07-20T22:45:07.734Z,69.50
2018-07-20T22:55:10.776Z,70.20
2018-07-20T23:05:13.886Z,70.60
2018-07-20T23:15:16.932Z,71.70
2018-07-20T23:25:20.015Z,71.30
2018-07-20T23:35:23.079Z,71.70
2018-07-20T23:45:28.147Z,72.40
2018-07-20T23:55:31.181Z,72.80
